createdAt,value
2023-02-14T00:02:05.909Z,100298.03
2023-02-14T00:04:32.043Z,100299.00
2023-02-14T00:06:58.219Z,100288.31
2023-02-14T00:09:24.343Z,100297.31
2023-02-14T00:11:50.437Z,100286.63
2023-02-14T00:14:16.540Z,100298.13
2023-02-14T00:16:42.699Z,100299.97
2023-02-14T00:19:08.800Z,100298.13
2023-02-14T00:21:34.906Z,100292.94
2023-02-14T00:24:01.107Z,100290.28
2023-02-14T00:26:27.200Z,100297.47
2023-02-14T00:28:53.304Z,100298.47
2023-02-14T00:31:19.534Z,100298.47
2023-02-14T00:33:45.721Z,100293.13
2023-02-14T00:36:11.832Z,100291.44
2023-02-14T00:38:37.962Z,100294.97
2023-02-14T00:41:04.072Z,100293.13
2023-02-14T00:43:30.167Z,100292.44
2023-02-14T00:45:56.422Z,100292.44
2023-02-14T00:48:22.604Z,100297.78
2023-02-14T00:50:48.708Z,100299.63
2023-02-14T00:53:14.877Z,100302.28
2023-02-14T00:55:40.992Z,100301.59
2023-02-14T00:58:07.155Z,100299.75
2023-02-14T01:00:33.359Z,100302.44
2023-02-14T01:02:59.467Z,100296.25
2023-02-14T01:05:25.587Z,100301.59
2023-02-14T01:07:51.722Z,100299.91
2023-02-14T01:10:17.843Z,100302.59
2023-02-14T01:12:43.943Z,100303.44
2023-02-14T01:15:10.075Z,100296.41
2023-02-14T01:17:36.192Z,100294.75
2023-02-14T01:20:02.329Z,100300.09
2023-02-14T01:22:28.466Z,100304.59
2023-02-14T01:24:54.593Z,100295.72
2023-02-14T01:27:20.696Z,100295.72
2023-02-14T01:29:47.383Z,100293.03
2023-02-14T01:32:13.701Z,100293.22
2023-02-14T01:34:39.815Z,100294.06
2023-02-14T01:37:05.950Z,100285.22
2023-02-14T01:39:32.060Z,100285.22
2023-02-14T01:41:58.153Z,100289.53
2023-02-14T01:44:24.276Z,100285.34
2023-02-14T01:46:50.385Z,100287.88
2023-02-14T01:49:16.500Z,100287.00
2023-02-14T01:51:42.605Z,100286.19
2023-02-14T01:54:08.717Z,100286.19
2023-02-14T01:56:34.838Z,100285.34
2023-02-14T01:59:00.963Z,100284.53
2023-02-14T02:01:27.274Z,100276.66
2023-02-14T02:03:53.437Z,100283.69
2023-02-14T02:06:19.547Z,100267.94
2023-02-14T02:08:45.651Z,100272.31
2023-02-14T02:11:11.753Z,100272.31
2023-02-14T02:13:37.894Z,100278.63
2023-02-14T02:16:04.000Z,100272.47
2023-02-14T02:18:30.099Z,100280.63
2023-02-14T02:20:57.008Z,100272.59
2023-02-14T02:23:23.213Z,100278.81
2023-02-14T02:25:49.312Z,100273.63
2023-02-14T02:28:15.442Z,100274.31
2023-02-14T02:30:41.633Z,100269.09
2023-02-14T02:33:07.854Z,100271.97
2023-02-14T02:35:33.979Z,100263.06
2023-02-14T02:38:00.103Z,100267.59
2023-02-14T02:40:26.222Z,100259.56
2023-02-14T02:42:52.344Z,100254.22
2023-02-14T02:45:18.431Z,100258.75
2023-02-14T02:47:44.530Z,100249.91
2023-02-14T02:50:10.655Z,100250.88
2023-02-14T02:52:36.770Z,100250.03
2023-02-14T02:55:02.892Z,100258.06
2023-02-14T02:57:29.025Z,100246.53
2023-02-14T02:59:55.172Z,100249.34
2023-02-14T03:02:21.281Z,100248.38
2023-02-14T03:04:47.415Z,100250.03
2023-02-14T03:07:13.554Z,100251.88
2023-02-14T03:09:39.671Z,100241.19
2023-02-14T03:12:05.812Z,100245.84
2023-02-14T03:14:31.929Z,100242.34
2023-02-14T03:16:58.016Z,100238.84
2023-02-14T03:19:24.132Z,100237.00
2023-02-14T03:21:50.228Z,100241.34
2023-02-14T03:24:16.348Z,100245.84
2023-02-14T03:26:42.464Z,100238.84
2023-02-14T03:29:08.560Z,100235.31
2023-02-14T03:31:34.816Z,100232.66
2023-02-14T03:34:01.045Z,100237.97
2023-02-14T03:36:27.147Z,100236.19
2023-02-14T03:38:53.248Z,100230.16
2023-02-14T03:41:19.361Z,100227.47
2023-02-14T03:43:45.449Z,100230.16
2023-02-14T03:46:11.609Z,100231.13
2023-02-14T03:48:37.749Z,100224.94
2023-02-14T03:51:03.883Z,100231.13
2023-02-14T03:53:29.986Z,100223.97
2023-02-14T03:55:56.117Z,100229.47
2023-02-14T03:58:22.226Z,100230.47
2023-02-14T04:00:48.330Z,100226.78
2023-02-14T04:03:14.498Z,100223.28
2023-02-14T04:05:40.627Z,100225.13
2023-02-14T04:08:06.727Z,100220.75
2023-02-14T04:10:32.865Z,100217.25
2023-02-14T04:12:58.978Z,100211.91
2023-02-14T04:15:25.082Z,100215.41
2023-02-14T04:17:51.265Z,100214.59
2023-02-14T04:20:17.371Z,100207.56
2023-02-14T04:22:43.476Z,100206.72
2023-02-14T04:25:09.638Z,100207.56
2023-02-14T04:27:35.756Z,100204.06
2023-02-14T04:30:01.934Z,100212.06
2023-02-14T04:32:28.136Z,100201.38
2023-02-14T04:34:54.280Z,100201.56
2023-02-14T04:37:20.379Z,100200.56
2023-02-14T04:39:46.587Z,100205.22
2023-02-14T04:42:12.723Z,100200.88
2023-02-14T04:44:38.836Z,100208.88
2023-02-14T04:47:04.967Z,100208.72
2023-02-14T04:49:31.098Z,100197.19
2023-02-14T04:51:57.198Z,100195.34
2023-02-14T04:54:23.329Z,100192.03
2023-02-14T04:56:49.440Z,100185.00
2023-02-14T04:59:15.582Z,100192.03
2023-02-14T05:01:41.771Z,100186.69
2023-02-14T05:04:07.912Z,100171.63
2023-02-14T05:06:34.025Z,100183.34
2023-02-14T05:09:00.139Z,100181.50
2023-02-14T05:11:26.252Z,100183.34
2023-02-14T05:13:52.374Z,100179.66
2023-02-14T05:16:18.609Z,100172.66
2023-02-14T05:18:44.807Z,100168.28
2023-02-14T05:21:10.902Z,100158.63
2023-02-14T05:23:37.013Z,100158.63
2023-02-14T05:26:03.128Z,100156.91
2023-02-14T05:28:29.231Z,100159.44
2023-02-14T05:30:55.783Z,100153.28
2023-02-14T05:33:21.908Z,100145.41
2023-02-14T05:35:48.037Z,100150.75
2023-02-14T05:38:14.174Z,100154.25
2023-02-14T05:40:40.281Z,100162.44
2023-02-14T05:43:06.391Z,100161.44
2023-02-14T05:45:32.535Z,100163.28
2023-02-14T05:47:58.662Z,100160.59
2023-02-14T05:50:24.780Z,100161.59
2023-02-14T05:52:50.899Z,100157.25
2023-02-14T05:55:17.023Z,100163.41
2023-02-14T05:57:43.119Z,100157.25
2023-02-14T06:00:09.261Z,100166.09
2023-02-14T06:02:35.474Z,100159.91
2023-02-14T06:05:01.765Z,100164.41
2023-02-14T06:07:27.935Z,100159.91
2023-02-14T06:09:54.028Z,100164.41
2023-02-14T06:12:20.137Z,100158.25
2023-02-14T06:14:46.243Z,100160.09
2023-02-14T06:17:12.357Z,100159.22
2023-02-14T06:19:38.486Z,100153.88
2023-02-14T06:22:04.618Z,100168.09
2023-02-14T06:24:30.732Z,100156.56
2023-02-14T06:26:56.836Z,100169.06
2023-02-14T06:29:22.991Z,100170.91
2023-02-14T06:31:49.204Z,100173.59
2023-02-14T06:34:16.228Z,100174.56
2023-02-14T06:36:42.484Z,100186.25
2023-02-14T06:39:08.596Z,100189.75
2023-02-14T06:41:34.692Z,100190.59
2023-02-14T06:44:01.463Z,100188.94
2023-02-14T06:46:27.636Z,100177.41
2023-02-14T06:48:53.728Z,100181.06
2023-02-14T06:51:19.855Z,100182.75
2023-02-14T06:53:45.949Z,100183.59
2023-02-14T06:56:12.051Z,100188.09
2023-02-14T06:58:38.193Z,100187.41
2023-02-14T07:01:04.369Z,100188.25
2023-02-14T07:03:30.512Z,100188.25
2023-02-14T07:05:56.655Z,100184.75
2023-02-14T07:08:24.167Z,100186.56
2023-02-14T07:10:52.023Z,100186.56
2023-02-14T07:13:18.197Z,100191.91
2023-02-14T07:15:44.383Z,100197.25
2023-02-14T07:18:10.599Z,100187.56
2023-02-14T07:20:36.740Z,100192.06
2023-02-14T07:23:02.827Z,100199.09
2023-02-14T07:25:28.920Z,100191.22
2023-02-14T07:27:55.044Z,100198.41
2023-02-14T07:30:21.175Z,100197.56
2023-02-14T07:32:47.284Z,100198.41
2023-02-14T07:35:15.245Z,100201.91
2023-02-14T07:37:41.469Z,100205.56
2023-02-14T07:40:14.364Z,100189.53
2023-02-14T07:42:41.191Z,100198.41
2023-02-14T07:45:20.679Z,100195.75
2023-02-14T07:47:47.909Z,100197.56
2023-02-14T07:50:14.023Z,100202.06
2023-02-14T07:52:40.114Z,100189.72
2023-02-14T07:55:06.295Z,100201.22
2023-02-14T07:57:32.400Z,100192.38
2023-02-14T07:59:58.580Z,100197.72
2023-02-14T08:02:24.706Z,100197.72
2023-02-14T08:04:50.844Z,100197.72
2023-02-14T08:07:16.963Z,100189.84
2023-02-14T08:09:43.086Z,100187.19
2023-02-14T08:12:09.195Z,100190.69
2023-02-14T08:14:35.311Z,100184.53
2023-02-14T08:17:01.480Z,100188.03
2023-02-14T08:19:27.648Z,100185.53
2023-02-14T08:21:53.794Z,100182.84
2023-02-14T08:24:19.978Z,100191.69
2023-02-14T08:26:46.084Z,100180.19
2023-02-14T08:29:12.285Z,100186.34
2023-02-14T08:31:38.490Z,100190.03
2023-02-14T08:34:04.675Z,100190.88
2023-02-14T08:36:30.791Z,100189.16
2023-02-14T08:38:56.954Z,100193.69
2023-02-14T08:41:23.048Z,100194.50
2023-02-14T08:43:49.179Z,100192.72
2023-02-14T08:46:15.384Z,100199.03
2023-02-14T08:48:41.598Z,100198.19
2023-02-14T08:51:07.730Z,100190.19
2023-02-14T08:53:34.489Z,100188.50
2023-02-14T08:56:00.795Z,100186.81
2023-02-14T08:58:27.099Z,100195.66
2023-02-14T09:00:53.267Z,100193.00
2023-02-14T09:03:19.394Z,100189.50
2023-02-14T09:05:45.535Z,100189.63
2023-02-14T09:08:11.867Z,100192.16
2023-02-14T09:10:38.053Z,100187.81
2023-02-14T09:13:04.181Z,100179.97
2023-02-14T09:15:30.346Z,100177.16
2023-02-14T09:17:56.470Z,100183.47
2023-02-14T09:20:22.581Z,100182.50
2023-02-14T09:22:49.002Z,100186.00
2023-02-14T09:25:15.168Z,100178.97
2023-02-14T09:27:41.254Z,100170.94
2023-02-14T09:30:07.410Z,100183.31
2023-02-14T09:32:33.726Z,100179.81
2023-02-14T09:34:59.917Z,100177.97
2023-02-14T09:37:26.037Z,100170.13
2023-02-14T09:39:52.174Z,100169.28
2023-02-14T09:42:18.312Z,100172.97
2023-02-14T09:44:44.428Z,100173.78
2023-02-14T09:47:12.977Z,100161.41
2023-02-14T09:49:39.191Z,100169.44
2023-02-14T09:52:05.471Z,100169.44
2023-02-14T09:54:31.574Z,100165.09
2023-02-14T09:56:57.689Z,100170.44
2023-02-14T09:59:23.832Z,100165.09
2023-02-14T10:01:49.954Z,100160.78
2023-02-14T10:04:19.110Z,100167.78
2023-02-14T10:06:45.230Z,100158.75
2023-02-14T10:09:11.431Z,100154.44
2023-02-14T10:11:37.526Z,100162.44
2023-02-14T10:14:03.699Z,100161.59
2023-02-14T10:16:29.920Z,100164.28
2023-02-14T10:18:56.031Z,100166.94
2023-02-14T10:21:22.147Z,100166.94
2023-02-14T10:23:48.247Z,100163.44
2023-02-14T10:26:14.345Z,100161.75
2023-02-14T10:28:40.490Z,100168.78
2023-02-14T10:31:06.647Z,100161.59
2023-02-14T10:33:32.800Z,100153.75
2023-02-14T10:35:58.930Z,100151.91
2023-02-14T10:38:25.071Z,100154.56
2023-02-14T10:40:51.187Z,100143.88
2023-02-14T10:43:17.313Z,100151.06
2023-02-14T10:45:43.424Z,100151.91
2023-02-14T10:48:09.593Z,100151.91
2023-02-14T10:50:35.774Z,100144.75
2023-02-14T10:53:01.868Z,100143.75
2023-02-14T10:55:32.470Z,100140.25
2023-02-14T10:57:59.055Z,100142.09
2023-02-14T11:00:25.156Z,100148.06
2023-02-14T11:02:51.266Z,100134.06
2023-02-14T11:05:17.498Z,100136.56
2023-02-14T11:07:43.614Z,100134.72
2023-02-14T11:10:09.726Z,100134.72
2023-02-14T11:12:35.864Z,100134.72
2023-02-14T11:15:01.980Z,100126.91
2023-02-14T11:17:28.125Z,100117.06
2023-02-14T11:19:54.282Z,100118.88
2023-02-14T11:22:20.386Z,100111.72
2023-02-14T11:24:46.483Z,100111.72
2023-02-14T11:27:12.644Z,100118.72
2023-02-14T11:29:38.741Z,100113.38
2023-02-14T11:32:04.867Z,100110.72
2023-02-14T11:34:31.009Z,100102.69
2023-02-14T11:36:57.099Z,100099.06
2023-02-14T11:39:23.203Z,100090.03
2023-02-14T11:41:49.966Z,100099.06
2023-02-14T11:44:16.083Z,100085.53
2023-02-14T11:46:52.730Z,100082.03
2023-02-14T11:49:19.728Z,100082.03
2023-02-14T11:51:45.835Z,100075.72
2023-02-14T11:54:11.936Z,100076.53
2023-02-14T11:56:38.171Z,100073.88
2023-02-14T11:59:04.296Z,100071.19
2023-02-14T12:01:30.399Z,100070.19
2023-02-14T12:03:56.564Z,100065.69
2023-02-14T12:06:22.687Z,100057.66
2023-02-14T12:08:48.775Z,100058.53
2023-02-14T12:11:14.899Z,100059.38
2023-02-14T12:13:41.005Z,100057.53
2023-02-14T12:16:07.118Z,100066.38
2023-02-14T12:18:33.300Z,100055.69
2023-02-14T12:20:59.700Z,100054.72
2023-02-14T12:23:26.022Z,100048.53
2023-02-14T12:25:52.159Z,100042.19
2023-02-14T12:28:18.265Z,100045.69
2023-02-14T12:30:44.419Z,100038.50
2023-02-14T12:33:10.604Z,100043.00
2023-02-14T12:35:36.750Z,100039.38
2023-02-14T12:38:05.023Z,100038.34
2023-02-14T12:40:31.268Z,100033.84
2023-02-14T12:42:57.362Z,100025.00
2023-02-14T12:45:23.458Z,100016.84
2023-02-14T12:47:49.605Z,100020.34
2023-02-14T12:50:15.838Z,100013.16
2023-02-14T12:52:42.003Z,100014.00
2023-02-14T12:55:08.129Z,100003.16
2023-02-14T12:57:34.274Z,99997.97
2023-02-14T13:00:00.378Z,99995.16
2023-02-14T13:02:26.563Z,99996.00
2023-02-14T13:04:52.758Z,99995.00
2023-02-14T13:07:18.882Z,99993.16
2023-02-14T13:09:45.055Z,99986.00
2023-02-14T13:12:11.164Z,99987.66
2023-02-14T13:14:37.465Z,99985.84
2023-02-14T13:17:03.584Z,99988.50
2023-02-14T13:19:29.920Z,99983.16
2023-02-14T13:21:57.671Z,99981.19
2023-02-14T13:24:24.916Z,99968.66
2023-02-14T13:26:51.046Z,99968.66
2023-02-14T13:29:17.251Z,99967.63
2023-02-14T13:31:43.482Z,99964.00
2023-02-14T13:34:09.661Z,99965.81
2023-02-14T13:36:35.758Z,99959.47
2023-02-14T13:39:01.887Z,99959.28
2023-02-14T13:41:28.217Z,99953.81
2023-02-14T13:43:54.377Z,99955.66
2023-02-14T13:46:20.575Z,99954.63
2023-02-14T13:48:46.693Z,99943.94
2023-02-14T13:51:12.790Z,99942.09
2023-02-14T13:53:38.933Z,99941.97
2023-02-14T13:56:05.030Z,99944.63
2023-02-14T13:58:31.192Z,99936.63
2023-02-14T14:00:57.322Z,99935.63
2023-02-14T14:03:25.888Z,99935.63
2023-02-14T14:05:52.113Z,99931.94
2023-02-14T14:08:18.265Z,99926.63
2023-02-14T14:10:44.377Z,99931.94
2023-02-14T14:13:10.629Z,99935.44
2023-02-14T14:15:36.824Z,99929.97
2023-02-14T14:18:02.947Z,99934.28
2023-02-14T14:20:29.051Z,99928.94
2023-02-14T14:22:55.175Z,99927.97
2023-02-14T14:25:21.275Z,99926.13
2023-02-14T14:27:47.361Z,99928.78
2023-02-14T14:30:13.620Z,99923.44
2023-02-14T14:32:39.905Z,99928.63
2023-02-14T14:35:06.055Z,99922.28
2023-02-14T14:37:32.188Z,99921.47
2023-02-14T14:39:58.278Z,99920.63
2023-02-14T14:42:24.381Z,99916.94
2023-02-14T14:44:50.536Z,99915.09
2023-02-14T14:47:16.629Z,99912.28
2023-02-14T14:49:42.767Z,99904.25
2023-02-14T14:52:08.947Z,99905.91
2023-02-14T14:54:35.093Z,99906.75
2023-02-14T14:57:01.203Z,99906.75
2023-02-14T14:59:27.313Z,99895.91
2023-02-14T15:01:53.413Z,99891.59
2023-02-14T15:04:19.567Z,99887.91
2023-02-14T15:06:45.740Z,99894.94
2023-02-14T15:09:11.840Z,99893.91
2023-02-14T15:11:37.943Z,99893.09
2023-02-14T15:14:04.143Z,99894.59
2023-02-14T15:16:30.298Z,99891.25
2023-02-14T15:18:56.434Z,99889.41
2023-02-14T15:21:22.567Z,99883.06
2023-02-14T15:23:48.686Z,99892.75
2023-02-14T15:26:14.812Z,99883.91
2023-02-14T15:28:40.921Z,99881.22
2023-02-14T15:31:07.137Z,99891.56
2023-02-14T15:33:33.322Z,99882.72
2023-02-14T15:35:59.443Z,99882.72
2023-02-14T15:38:27.863Z,99876.38
2023-02-14T15:40:53.965Z,99885.06
2023-02-14T15:43:20.092Z,99884.06
2023-02-14T15:45:46.684Z,99877.88
2023-02-14T15:48:12.832Z,99870.53
2023-02-14T15:50:38.971Z,99882.91
2023-02-14T15:53:05.102Z,99876.88
2023-02-14T15:55:31.206Z,99872.53
2023-02-14T15:57:57.377Z,99878.38
2023-02-14T16:00:23.518Z,99869.56
2023-02-14T16:02:49.663Z,99873.88
2023-02-14T16:05:15.836Z,99873.06
2023-02-14T16:07:41.966Z,99871.06
2023-02-14T16:10:08.060Z,99877.22
2023-02-14T16:12:34.181Z,99872.72
2023-02-14T16:15:00.284Z,99874.56
2023-02-14T16:17:26.378Z,99874.38
2023-02-14T16:19:52.591Z,99874.22
2023-02-14T16:22:18.724Z,99882.22
2023-02-14T16:24:44.822Z,99880.38
2023-02-14T16:27:10.941Z,99879.41
2023-02-14T16:29:37.053Z,99881.06
2023-02-14T16:32:18.673Z,99875.72
2023-02-14T16:34:44.873Z,99876.53
2023-02-14T16:37:10.993Z,99881.88
2023-02-14T16:39:37.098Z,99885.22
2023-02-14T16:42:03.226Z,99881.56
2023-02-14T16:44:29.368Z,99873.72
2023-02-14T16:46:55.471Z,99881.56
2023-02-14T16:49:21.596Z,99880.75
2023-02-14T16:51:47.726Z,99878.91
2023-02-14T16:54:13.853Z,99877.06
2023-02-14T16:56:40.000Z,99877.06
2023-02-14T16:59:07.546Z,99889.41
2023-02-14T17:01:33.732Z,99883.22
2023-02-14T17:03:59.861Z,99883.22
2023-02-14T17:06:25.976Z,99885.75
2023-02-14T17:08:52.265Z,99890.25
2023-02-14T17:11:18.412Z,99892.94
2023-02-14T17:13:44.496Z,99889.25
2023-02-14T17:16:10.643Z,99890.94
2023-02-14T17:18:36.785Z,99891.78
2023-02-14T17:21:03.147Z,99897.13
2023-02-14T17:23:29.360Z,99891.59
2023-02-14T17:25:55.592Z,99894.28
2023-02-14T17:28:21.723Z,99898.63
2023-02-14T17:30:47.839Z,99891.59
2023-02-14T17:33:13.973Z,99893.28
2023-02-14T17:35:40.142Z,99890.63
2023-02-14T17:38:06.266Z,99893.44
2023-02-14T17:40:32.372Z,99892.47
2023-02-14T17:42:58.516Z,99891.59
2023-02-14T17:45:24.620Z,99891.59
2023-02-14T17:47:50.732Z,99892.47
2023-02-14T17:50:16.835Z,99884.44
2023-02-14T17:52:42.943Z,99890.63
2023-02-14T17:55:09.104Z,99889.59
2023-02-14T17:57:35.231Z,99894.13
2023-02-14T18:00:01.414Z,99886.94
2023-02-14T18:02:27.756Z,99892.28
2023-02-14T18:04:54.056Z,99885.94
2023-02-14T18:07:20.153Z,99885.94
2023-02-14T18:09:46.296Z,99892.13
2023-02-14T18:12:15.092Z,99887.75
2023-02-14T18:14:41.512Z,99885.94
2023-02-14T18:17:07.636Z,99877.94
2023-02-14T18:19:33.754Z,99873.56
2023-02-14T18:21:59.855Z,99869.91
2023-02-14T18:24:26.117Z,99876.91
2023-02-14T18:26:52.245Z,99872.56
2023-02-14T18:29:18.346Z,99871.56
2023-02-14T18:31:44.635Z,99873.41
2023-02-14T18:34:10.788Z,99868.06
2023-02-14T18:36:37.059Z,99875.06
2023-02-14T18:39:03.180Z,99876.91
2023-02-14T18:41:29.291Z,99882.25
2023-02-14T18:43:55.402Z,99867.88
2023-02-14T18:46:21.526Z,99867.03
2023-02-14T18:48:47.629Z,99868.88
2023-02-14T18:51:13.744Z,99859.69
2023-02-14T18:53:39.884Z,99864.38
2023-02-14T18:56:05.990Z,99858.19
2023-02-14T18:58:32.092Z,99870.53
2023-02-14T19:00:58.265Z,99859.03
2023-02-14T19:03:24.422Z,99863.53
2023-02-14T19:05:50.524Z,99858.19
2023-02-14T19:08:16.694Z,99863.53
2023-02-14T19:10:42.802Z,99859.03
2023-02-14T19:13:08.923Z,99862.53
2023-02-14T19:15:35.051Z,99863.53
2023-02-14T19:18:01.147Z,99858.19
2023-02-14T19:20:27.255Z,99859.22
2023-02-14T19:22:53.792Z,99852.84
2023-02-14T19:25:19.923Z,99850.34
2023-02-14T19:27:46.035Z,99859.03
2023-02-14T19:30:12.269Z,99859.22
2023-02-14T19:32:38.380Z,99861.03
2023-02-14T19:35:04.484Z,99861.88
2023-02-14T19:37:30.622Z,99859.22
2023-02-14T19:39:56.736Z,99852.19
2023-02-14T19:42:22.841Z,99853.00
2023-02-14T19:44:48.959Z,99847.84
2023-02-14T19:47:27.194Z,99841.50
2023-02-14T19:49:57.286Z,99849.50
2023-02-14T19:52:26.945Z,99841.50
2023-02-14T19:54:53.139Z,99838.81
2023-02-14T19:57:19.264Z,99829.97
2023-02-14T19:59:45.429Z,99832.66
2023-02-14T20:02:11.612Z,99827.31
2023-02-14T20:04:37.817Z,99822.97
2023-02-14T20:07:03.927Z,99823.81
2023-02-14T20:09:30.040Z,99820.31
2023-02-14T20:11:56.350Z,99822.13
2023-02-14T20:14:22.503Z,99817.44
2023-02-14T20:16:48.628Z,99812.91
2023-02-14T20:19:14.771Z,99812.91
2023-02-14T20:21:40.866Z,99812.09
2023-02-14T20:24:06.957Z,99809.41
2023-02-14T20:26:33.142Z,99811.41
2023-02-14T20:28:59.255Z,99810.44
2023-02-14T20:31:25.461Z,99811.41
2023-02-14T20:33:51.790Z,99812.28
2023-02-14T20:36:17.878Z,99804.44
2023-02-14T20:38:43.990Z,99808.09
2023-02-14T20:41:10.100Z,99807.09
2023-02-14T20:43:36.204Z,99804.44
2023-02-14T20:46:02.348Z,99807.94
2023-02-14T20:48:28.493Z,99804.44
2023-02-14T20:50:54.626Z,99798.25
2023-02-14T20:53:20.738Z,99791.88
2023-02-14T20:55:46.928Z,99784.88
2023-02-14T20:58:13.243Z,99788.38
2023-02-14T21:00:39.360Z,99789.38
2023-02-14T21:03:05.490Z,99793.72
2023-02-14T21:05:31.615Z,99782.34
2023-02-14T21:07:57.718Z,99775.19
2023-02-14T21:10:23.848Z,99777.00
2023-02-14T21:12:49.958Z,99778.03
2023-02-14T21:15:16.063Z,99775.19
2023-02-14T21:17:42.174Z,99770.00
2023-02-14T21:20:08.288Z,99759.97
2023-02-14T21:22:34.386Z,99774.19
2023-02-14T21:25:00.522Z,99779.66
2023-02-14T21:27:26.632Z,99780.53
2023-02-14T21:29:52.802Z,99771.66
2023-02-14T21:32:19.031Z,99777.00
2023-02-14T21:34:45.154Z,99777.00
2023-02-14T21:37:11.265Z,99764.81
2023-02-14T21:39:37.389Z,99766.66
2023-02-14T21:42:03.505Z,99765.63
2023-02-14T21:44:29.629Z,99770.16
2023-02-14T21:46:55.761Z,99763.16
2023-02-14T21:49:21.888Z,99764.97
2023-02-14T21:51:48.007Z,99767.66
2023-02-14T21:54:14.139Z,99774.69
2023-02-14T21:56:40.242Z,99768.66
2023-02-14T21:59:06.375Z,99771.34
2023-02-14T22:01:32.557Z,99778.34
2023-02-14T22:03:58.689Z,99774.00
2023-02-14T22:06:24.794Z,99775.84
2023-02-14T22:08:50.918Z,99774.00
2023-02-14T22:11:17.077Z,99769.66
2023-02-14T22:13:43.179Z,99769.66
2023-02-14T22:16:09.532Z,99773.34
2023-02-14T22:18:35.641Z,99770.66
2023-02-14T22:21:02.001Z,99763.47
2023-02-14T22:23:29.127Z,99750.31
2023-02-14T22:25:55.271Z,99755.66
2023-02-14T22:28:21.414Z,99760.13
2023-02-14T22:30:47.539Z,99758.47
2023-02-14T22:33:13.659Z,99760.13
2023-02-14T22:35:39.793Z,99755.81
2023-02-14T22:38:06.358Z,99757.66
2023-02-14T22:40:32.479Z,99755.81
2023-02-14T22:42:58.592Z,99763.00
2023-02-14T22:45:24.710Z,99758.47
2023-02-14T22:47:50.837Z,99760.31
2023-02-14T22:50:16.956Z,99761.31
2023-02-14T22:52:43.078Z,99755.97
2023-02-14T22:55:09.174Z,99761.31
2023-02-14T22:57:35.272Z,99751.47
2023-02-14T23:00:01.488Z,99742.81
2023-02-14T23:02:27.663Z,99738.28
2023-02-14T23:04:55.641Z,99732.94
2023-02-14T23:07:23.038Z,99732.13
2023-02-14T23:09:49.142Z,99730.44
2023-02-14T23:12:15.245Z,99731.25
2023-02-14T23:14:41.365Z,99730.28
2023-02-14T23:17:07.463Z,99729.59
2023-02-14T23:19:33.577Z,99740.28
2023-02-14T23:21:59.743Z,99734.94
2023-02-14T23:24:25.857Z,99737.63
2023-02-14T23:26:51.971Z,99745.63
2023-02-14T23:29:18.104Z,99743.13
2023-02-14T23:31:44.349Z,99735.97
2023-02-14T23:34:10.494Z,99740.63
2023-02-14T23:36:36.598Z,99729.94
2023-02-14T23:39:02.700Z,99728.25
2023-02-14T23:41:28.807Z,99728.09
2023-02-14T23:43:54.961Z,99726.25
2023-02-14T23:46:21.069Z,99738.94
2023-02-14T23:48:47.178Z,99733.59
2023-02-14T23:51:13.332Z,99743.47
2023-02-14T23:53:39.439Z,99744.28
2023-02-14T23:56:05.531Z,99739.31
2023-02-14T23:58:31.660Z,99740.31
